.
WxDataArchive / Data Records for 2016-03-24
2016-03-23 March 2016 2016-03-25

Data Records for Thursday, 24 March 2016

Time	Temp	Chill	HIndex	Humid	Dewpt	 Wind 	HiWind	WindDir	Rain 	Barom
-----	----	-----	------	-----	-----	------	------	-------	-----	-----
00:00	44.8	44.8	44.8	92	42.6	2	6	90	0.00	29.796 
00:05	44.8	44.8	44.8	92	42.6	2	4	90	0.00	29.796 
00:10	44.9	44.9	44.9	92	42.7	1	4	90	0.00	29.796 
00:15	45.1	45.1	45.1	93	43.2	2	7	90	0.00	29.792 
00:20	45.1	45.1	45.1	92	42.9	3	7	112	0.00	29.792 
00:25	44.9	44.9	44.9	92	42.7	3	6	90	0.00	29.792 
00:30	44.8	44.8	44.8	92	42.6	2	5	90	0.00	29.785 
00:35	44.6	44.6	44.6	92	42.4	2	7	90	0.00	29.785 
00:40	44.6	44.6	44.6	92	42.4	2	4	90	0.00	29.785 
00:45	44.5	44.5	44.5	92	42.3	2	5	90	0.00	29.774 
00:50	44.5	44.5	44.5	92	42.3	2	4	90	0.00	29.774 
00:55	44.3	44.3	44.3	92	42.1	2	6	90	0.00	29.774 
01:00	44.3	44.3	44.3	92	42.1	2	6	90	0.00	29.770 
01:05	44.2	44.2	44.2	92	42.0	3	7	90	0.00	29.770 
01:10	44.3	44.3	44.3	93	42.4	2	4	90	0.00	29.770 
01:15	44.3	44.3	44.3	92	42.1	2	6	112	0.00	29.761 
01:20	44.3	44.3	44.3	93	42.4	2	4	90	0.00	29.761 
01:25	44.3	44.3	44.3	93	42.4	2	5	90	0.00	29.761 
01:30	44.3	44.3	44.3	93	42.4	2	5	90	0.00	29.762 
01:35	44.3	44.3	44.3	93	42.4	2	6	112	0.00	29.762 
01:40	44.3	44.3	44.3	93	42.4	2	4	112	0.00	29.762 
01:45	44.5	44.5	44.5	92	42.3	1	4	112	0.00	29.758 
01:50	44.5	44.5	44.5	92	42.3	2	6	90	0.00	29.758 
01:55	44.5	44.5	44.5	92	42.3	0	4	90	0.00	29.758 
02:00	44.5	44.5	44.5	92	42.3	1	4	90	0.00	29.750 
02:05	44.5	44.5	44.5	92	42.3	0	3	68	0.00	29.750 
02:10	44.5	44.5	44.5	92	42.3	1	3	68	0.00	29.750 
02:15	44.5	44.5	44.5	92	42.3	0	2	68	0.00	29.744 
02:20	44.2	44.2	44.2	92	42.0	2	6	112	0.00	29.744 
02:25	44.1	44.1	44.1	92	41.9	2	5	112	0.00	29.744 
02:30	44.1	44.1	44.1	92	41.9	1	4	112	0.00	29.744 
02:35	44.1	44.1	44.1	92	41.9	1	4	112	0.00	29.744 
02:40	44.1	44.1	44.1	92	41.9	1	5	112	0.00	29.744 
02:45	44.1	44.1	44.1	93	42.2	1	4	112	0.00	29.733 
02:50	44.1	44.1	44.1	93	42.2	2	5	112	0.00	29.733 
02:55	44.1	44.1	44.1	93	42.2	1	4	90	0.00	29.733 
03:00	44.2	44.2	44.2	93	42.3	0	2	90	0.00	29.733 
03:05	44.1	44.1	44.1	92	41.9	0	2	90	0.00	29.733 
03:10	43.9	43.9	43.9	92	41.7	0	3	90	0.00	29.733 
03:15	43.9	43.9	43.9	92	41.7	0	1	90	0.00	29.741 
03:20	43.9	43.9	43.9	92	41.7	0	1	90	0.00	29.741 
03:25	44.1	44.1	44.1	93	42.2	0	2	90	0.00	29.741 
03:30	44.2	44.2	44.2	93	42.3	1	3	90	0.00	29.731 
03:35	44.2	44.2	44.2	93	42.3	0	3	90	0.00	29.731 
03:40	44.3	44.3	44.3	93	42.4	0	1	90	0.00	29.731 
03:45	44.3	44.3	44.3	93	42.4	0	3	90	0.00	29.725 
03:50	44.3	44.3	44.3	93	42.4	0	1	90	0.00	29.725 
03:55	44.3	44.3	44.3	93	42.4	0	2	90	0.00	29.725 
04:00	44.3	44.3	44.3	92	42.1	0	2	90	0.00	29.717 
04:05	44.3	44.3	44.3	92	42.1	1	5	90	0.00	29.717 
04:10	44.3	44.3	44.3	92	42.1	1	5	90	0.00	29.717 
04:15	44.3	44.3	44.3	92	42.1	1	4	90	0.00	29.707 
04:20	44.2	44.2	44.2	92	42.0	1	4	90	0.00	29.707 
04:25	44.2	44.2	44.2	92	42.0	1	4	90	0.00	29.707 
04:30	44.2	44.2	44.2	92	42.0	1	3	90	0.00	29.700 
04:35	44.2	44.2	44.2	92	42.0	1	4	90	0.00	29.700 
04:40	44.2	44.2	44.2	92	42.0	2	4	90	0.00	29.700 
04:45	44.2	44.2	44.2	92	42.0	2	5	90	0.00	29.694 
04:50	44.2	44.2	44.2	92	42.0	2	5	90	0.00	29.694 
04:55	44.1	44.1	44.1	92	41.9	2	3	90	0.00	29.694 
05:00	44.1	44.1	44.1	92	41.9	2	3	68	0.00	29.687 
05:05	44.2	44.2	44.2	92	42.0	1	3	68	0.00	29.687 
05:10	44.2	44.2	44.2	92	42.0	1	3	68	0.00	29.687 
05:15	44.3	44.3	44.3	92	42.1	1	3	90	0.00	29.688 
05:20	44.3	44.3	44.3	92	42.1	2	4	90	0.00	29.688 
05:25	44.5	44.5	44.5	92	42.3	2	3	90	0.00	29.688 
05:30	44.5	44.5	44.5	92	42.3	1	4	90	0.00	29.682 
05:35	44.5	44.5	44.5	92	42.3	1	3	90	0.00	29.682 
05:40	44.6	44.6	44.6	92	42.4	1	3	90	0.00	29.682 
05:45	44.8	44.8	44.8	92	42.6	1	2	90	0.00	29.671 
05:50	44.9	44.9	44.9	92	42.7	1	3	90	0.00	29.671 
05:55	45.1	45.1	45.1	92	42.9	1	3	90	0.00	29.671 
06:00	45.2	45.2	45.2	92	43.0	1	3	90	0.00	29.669 
06:05	45.4	45.4	45.4	92	43.2	1	4	90	0.00	29.669 
06:10	45.7	45.7	45.7	92	43.5	1	3	90	0.00	29.669 
06:15	45.8	45.8	45.8	92	43.6	1	2	90	0.00	29.665 
06:20	46.0	46.0	46.0	91	43.5	1	3	90	0.00	29.665 
06:25	46.1	46.1	46.1	91	43.6	1	3	90	0.00	29.665 
06:30	46.2	46.2	46.2	91	43.7	1	3	90	0.00	29.653 
06:35	46.4	46.4	46.4	91	43.9	1	4	90	0.00	29.653 
06:40	46.5	46.5	46.5	90	43.7	0	1	90	0.00	29.653 
06:45	46.5	46.5	46.5	90	43.7	0	0	---	0.00	29.654 
06:50	46.7	46.7	46.7	90	43.9	0	0	---	0.00	29.654 
06:55	46.8	46.8	46.8	90	44.0	0	0	---	0.00	29.654 
07:00	47.1	47.1	47.1	90	44.3	0	0	---	0.00	29.650 
07:05	47.3	47.3	47.3	90	44.5	0	0	---	0.00	29.650 
07:10	47.4	47.4	47.4	90	44.6	0	1	90	0.00	29.650 
07:15	47.6	47.6	47.6	90	44.8	0	0	---	0.00	29.640 
07:20	47.7	47.7	47.7	90	44.9	0	1	90	0.00	29.640 
07:25	48.0	48.0	48.0	89	44.9	0	0	---	0.00	29.640 
07:30	48.3	48.3	48.3	90	45.5	0	0	---	0.00	29.638 
07:35	48.6	48.6	48.6	89	45.5	0	0	---	0.00	29.638 
07:40	49.4	49.4	49.4	90	46.6	0	1	90	0.00	29.638 
07:45	50.7	50.7	50.7	88	47.3	0	1	90	0.00	29.630 
07:50	52.0	52.0	52.0	87	48.3	0	2	90	0.00	29.630 
07:55	53.3	53.3	53.3	85	48.9	0	2	90	0.00	29.630 
08:00	54.5	54.5	54.5	82	49.1	0	2	90	0.00	29.627 
08:05	55.7	55.7	55.7	79	49.3	1	4	112	0.00	29.627 
08:10	56.6	56.6	56.6	76	49.1	1	3	112	0.00	29.627 
08:15	57.2	57.2	57.2	75	49.3	0	3	112	0.00	29.616 
08:20	57.5	57.5	57.5	74	49.3	1	4	90	0.00	29.616 
08:25	57.8	57.8	57.8	74	49.6	1	3	90	0.00	29.616 
08:30	58.0	58.0	58.0	74	49.8	1	3	90	0.00	29.613 
08:35	58.0	58.0	58.0	73	49.4	2	5	90	0.00	29.613 
08:40	58.3	58.3	58.3	73	49.7	2	4	68	0.00	29.613 
08:45	58.3	58.3	58.3	73	49.7	2	6	90	0.00	29.608 
08:50	58.4	58.4	58.4	73	49.8	2	4	90	0.00	29.608 
08:55	58.3	58.3	58.3	74	50.0	1	3	90	0.00	29.608 
09:00	58.3	58.3	58.3	75	50.4	0	2	135	0.00	29.600 
09:05	58.1	58.1	58.1	76	50.6	1	3	135	0.00	29.600 
09:10	58.0	58.0	58.0	76	50.5	2	5	112	0.00	29.600 
09:15	57.8	57.8	57.8	77	50.6	1	4	112	0.00	29.584 
09:20	57.8	57.8	57.8	77	50.6	1	4	68	0.01	29.584 
09:25	57.6	57.6	57.6	78	50.8	1	3	68	0.00	29.584 
09:30	57.5	57.5	57.5	79	51.0	2	5	90	0.00	29.584 
09:35	57.5	57.5	57.5	80	51.4	1	5	90	0.00	29.584 
09:40	57.3	57.3	57.3	81	51.5	2	5	112	0.00	29.584 
09:45	57.2	57.2	57.2	81	51.4	1	4	68	0.01	29.582 
09:50	57.0	57.0	57.0	83	51.9	1	5	68	0.01	29.582 
09:55	56.7	56.7	56.7	84	51.9	1	3	90	0.01	29.582 
10:00	56.6	56.6	56.6	85	52.1	2	7	90	0.01	29.572 
10:05	56.6	56.6	56.6	85	52.1	2	5	90	0.00	29.572 
10:10	56.5	56.5	56.5	86	52.4	1	4	90	0.01	29.572 
10:15	56.5	56.5	56.5	87	52.7	1	3	90	0.02	29.577 
10:20	56.3	56.3	56.3	88	52.8	0	4	90	0.02	29.577 
10:25	56.2	56.2	56.2	89	53.0	0	3	45	0.01	29.577 
10:30	56.2	56.2	56.2	89	53.0	0	2	45	0.02	29.578 
10:35	56.0	56.0	56.0	90	53.1	0	3	45	0.00	29.578 
10:40	56.0	56.0	56.0	90	53.1	0	2	45	0.03	29.578 
10:45	56.0	56.0	56.0	91	53.4	0	4	90	0.02	29.581 
10:50	56.0	56.0	56.0	91	53.4	1	6	90	0.03	29.581 
10:55	56.0	56.0	56.0	91	53.4	1	4	90	0.01	29.581 
11:00	56.0	56.0	56.0	92	53.7	1	5	270	0.02	29.574 
11:05	56.0	56.0	56.0	92	53.7	1	4	68	0.00	29.574 
11:10	56.2	56.2	56.2	92	53.9	1	5	112	0.01	29.574 
11:15	56.2	56.2	56.2	92	53.9	0	2	112	0.00	29.563 
11:20	56.3	56.3	56.3	92	54.0	0	2	90	0.01	29.563 
11:25	56.3	56.3	56.3	92	54.0	1	4	90	0.00	29.563 
11:30	56.3	56.3	56.3	92	54.0	0	2	315	0.00	29.562 
11:35	56.3	56.3	56.3	92	54.0	1	4	315	0.01	29.562 
11:40	56.3	56.3	56.3	92	54.0	0	3	225	0.02	29.562 
11:45	56.3	56.3	56.3	93	54.3	1	3	248	0.01	29.559 
11:50	56.2	56.2	56.2	93	54.2	0	2	248	0.02	29.559 
11:55	56.2	56.2	56.2	93	54.2	1	6	225	0.03	29.559 
12:00	56.2	56.2	56.2	93	54.2	2	6	112	0.01	29.546 
12:05	56.2	56.2	56.2	93	54.2	2	4	90	0.02	29.546 
12:10	56.2	56.2	56.2	93	54.2	2	9	90	0.04	29.546 
12:15	56.2	56.2	56.2	93	54.2	1	4	90	0.02	29.539 
12:20	56.2	56.2	56.2	93	54.2	1	4	90	0.02	29.539 
12:25	56.2	56.2	56.2	93	54.2	1	5	90	0.03	29.539 
12:30	56.2	56.2	56.2	94	54.5	1	4	90	0.02	29.526 
12:35	56.2	56.2	56.2	94	54.5	2	6	112	0.01	29.526 
12:40	56.3	56.3	56.3	94	54.6	1	6	68	0.01	29.526 
12:45	56.3	56.3	56.3	94	54.6	2	5	112	0.02	29.516 
12:50	56.5	56.5	56.5	94	54.8	2	10	112	0.01	29.516 
12:55	56.6	56.6	56.6	94	54.9	2	6	112	0.01	29.516 
13:00	56.7	56.7	56.7	94	55.0	3	6	112	0.01	29.502 
13:05	56.7	56.7	56.7	94	55.0	3	7	90	0.00	29.502 
13:10	56.9	56.9	56.9	94	55.2	3	11	90	0.01	29.502 
13:15	56.9	56.9	56.9	93	54.9	2	9	68	0.00	29.497 
13:20	57.0	57.0	57.0	93	55.0	2	6	90	0.01	29.497 
13:25	57.0	57.0	57.0	93	55.0	2	10	90	0.01	29.497 
13:30	57.0	57.0	57.0	93	55.0	2	7	90	0.01	29.483 
13:35	57.0	57.0	57.0	93	55.0	2	5	112	0.02	29.483 
13:40	57.2	57.2	57.2	93	55.2	1	3	112	0.01	29.483 
13:45	57.3	57.3	57.3	93	55.3	0	3	90	0.00	29.466 
13:50	58.0	58.0	58.0	94	56.3	1	6	90	0.00	29.466 
13:55	58.3	58.3	58.3	93	56.3	1	6	270	0.00	29.466 
14:00	58.4	58.4	58.4	93	56.4	1	6	90	0.00	29.447 
14:05	58.4	58.4	58.4	92	56.1	1	5	68	0.00	29.447 
14:10	58.3	58.3	58.3	92	56.0	2	6	248	0.00	29.447 
14:15	58.3	58.3	58.3	91	55.7	2	6	248	0.00	29.449 
14:20	58.4	58.4	58.4	90	55.5	1	4	90	0.00	29.449 
14:25	58.4	58.4	58.4	90	55.5	1	5	22	0.00	29.449 
14:30	58.4	58.4	58.4	89	55.2	1	4	45	0.00	29.436 
14:35	58.6	58.6	58.6	89	55.4	1	5	90	0.01	29.436 
14:40	58.6	58.6	58.6	90	55.7	1	6	112	0.00	29.436 
14:45	58.6	58.6	58.6	90	55.7	1	4	90	0.01	29.432 
14:50	58.4	58.4	58.4	91	55.8	1	4	90	0.01	29.432 
14:55	58.4	58.4	58.4	91	55.8	1	4	90	0.00	29.432 
15:00	58.4	58.4	58.4	92	56.1	1	4	90	0.01	29.422 
15:05	58.4	58.4	58.4	92	56.1	1	3	248	0.00	29.422 
15:10	58.4	58.4	58.4	92	56.1	0	3	248	0.00	29.422 
15:15	58.4	58.4	58.4	92	56.1	0	3	248	0.00	29.410 
15:20	58.6	58.6	58.6	92	56.3	0	3	248	0.00	29.410 
15:25	58.6	58.6	58.6	92	56.3	1	3	248	0.00	29.410 
15:30	58.6	58.6	58.6	92	56.3	1	3	135	0.00	29.406 
15:35	58.6	58.6	58.6	93	56.6	0	2	135	0.01	29.406 
15:40	58.4	58.4	58.4	93	56.4	1	5	135	0.00	29.406 
15:45	58.4	58.4	58.4	93	56.4	2	6	45	0.00	29.401 
15:50	58.3	58.3	58.3	92	56.0	1	6	270	0.00	29.401 
15:55	58.1	58.1	58.1	92	55.8	1	7	68	0.00	29.401 
16:00	58.0	58.0	58.0	92	55.7	2	6	248	0.00	29.402 
16:05	58.0	58.0	58.0	92	55.7	2	4	248	0.00	29.402 
16:10	58.0	58.0	58.0	91	55.4	2	10	248	0.00	29.402 
16:15	58.0	58.0	58.0	91	55.4	1	6	248	0.00	29.387 
16:20	58.0	58.0	58.0	91	55.4	1	4	248	0.00	29.387 
16:25	58.1	58.1	58.1	91	55.5	2	9	248	0.00	29.387 
16:30	58.3	58.3	58.3	90	55.4	2	5	248	0.00	29.389 
16:35	58.6	58.6	58.6	90	55.7	1	4	248	0.00	29.389 
16:40	58.7	58.7	58.7	90	55.8	2	6	248	0.00	29.389 
16:45	58.9	58.9	58.9	89	55.7	2	7	248	0.00	29.373 
16:50	59.2	59.2	59.2	89	56.0	0	2	248	0.00	29.373 
16:55	59.3	59.3	59.3	88	55.7	2	5	248	0.00	29.373 
17:00	59.5	59.5	59.5	88	55.9	2	7	248	0.00	29.370 
17:05	59.6	59.6	59.6	88	56.0	1	3	248	0.00	29.370 
17:10	59.6	59.6	59.6	87	55.7	1	6	248	0.00	29.370 
17:15	59.6	59.6	59.6	86	55.4	1	4	248	0.00	29.375 
17:20	59.5	59.5	59.5	86	55.3	1	4	248	0.00	29.375 
17:25	59.3	59.3	59.3	85	54.8	2	10	248	0.00	29.375 
17:30	59.3	59.3	59.3	85	54.8	0	4	248	0.00	29.381 
17:35	59.2	59.2	59.2	86	55.0	1	4	270	0.00	29.381 
17:40	59.0	59.0	59.0	86	54.8	2	4	270	0.01	29.381 
17:45	58.7	58.7	58.7	87	54.8	3	9	270	0.01	29.399 
17:50	58.3	58.3	58.3	88	54.8	2	6	248	0.00	29.399 
17:55	58.0	58.0	58.0	88	54.5	2	10	292	0.00	29.399 
18:00	57.3	57.3	57.3	87	53.5	2	4	292	0.00	29.415 
18:05	56.5	56.5	56.5	86	52.4	2	4	292	0.00	29.415 
18:10	55.9	55.9	55.9	87	52.1	2	6	292	0.00	29.415 
18:15	55.7	55.7	55.7	88	52.2	1	2	292	0.00	29.417 
18:20	55.6	55.6	55.6	88	52.1	0	2	292	0.00	29.417 
18:25	55.7	55.7	55.7	88	52.2	1	2	292	0.00	29.417 
18:30	55.6	55.6	55.6	88	52.1	1	3	292	0.00	29.418 
18:35	55.7	55.7	55.7	88	52.2	2	5	292	0.00	29.418 
18:40	55.9	55.9	55.9	88	52.4	1	3	270	0.00	29.418 
18:45	55.9	55.9	55.9	85	51.5	3	6	270	0.00	29.421 
18:50	56.2	56.2	56.2	85	51.7	3	5	292	0.00	29.421 
18:55	55.9	55.9	55.9	84	51.1	3	6	270	0.00	29.421 
19:00	55.7	55.7	55.7	83	50.6	3	6	270	0.00	29.425 
19:05	55.6	55.6	55.6	82	50.2	3	6	292	0.00	29.425 
19:10	55.6	55.6	55.6	82	50.2	3	5	270	0.00	29.425 
19:15	55.3	55.3	55.3	81	49.6	3	7	270	0.00	29.428 
19:20	55.0	55.0	55.0	78	48.3	3	6	270	0.00	29.428 
19:25	54.8	54.8	54.8	77	47.7	3	6	270	0.00	29.428 
19:30	54.5	54.5	54.5	76	47.1	4	9	270	0.00	29.434 
19:35	54.4	54.4	54.4	76	47.0	3	7	270	0.00	29.434 
19:40	54.1	54.1	54.1	76	46.7	3	7	248	0.00	29.434 
19:45	53.9	53.9	53.9	76	46.5	3	4	248	0.00	29.445 
19:50	53.6	53.6	53.6	75	45.9	3	5	248	0.00	29.445 
19:55	53.5	53.5	53.5	74	45.4	3	10	248	0.00	29.445 
20:00	53.2	53.2	53.2	73	44.8	3	7	248	0.00	29.447 
20:05	53.1	53.1	53.1	74	45.0	2	5	248	0.00	29.447 
20:10	52.9	52.9	52.9	74	44.8	2	7	248	0.00	29.447 
20:15	52.8	52.8	52.8	74	44.7	2	5	270	0.00	29.455 
20:20	52.6	52.6	52.6	73	44.2	3	6	248	0.00	29.455 
20:25	52.5	52.5	52.5	73	44.1	3	11	248	0.00	29.455 
20:30	52.3	52.3	52.3	75	44.6	3	6	270	0.00	29.474 
20:35	51.6	51.6	51.6	76	44.3	4	7	270	0.00	29.474 
20:40	51.0	51.0	51.0	77	44.0	4	12	270	0.00	29.474 
20:45	49.8	48.0	49.8	79	43.6	5	9	270	0.00	29.496 
20:50	48.8	47.5	48.8	80	42.9	4	10	270	0.00	29.496 
20:55	47.9	46.4	47.9	81	42.4	4	6	270	0.00	29.496 
21:00	46.8	45.2	46.8	82	41.6	4	7	270	0.00	29.520 
21:05	45.8	44.0	45.8	83	40.9	4	7	270	0.00	29.520 
21:10	45.1	43.2	45.1	83	40.3	4	8	270	0.00	29.520 
21:15	44.2	44.2	44.2	83	39.4	3	10	270	0.00	29.540 
21:20	43.8	43.8	43.8	83	39.0	3	5	292	0.00	29.540 
21:25	43.5	43.5	43.5	84	39.0	2	5	292	0.00	29.540 
21:30	43.1	43.1	43.1	84	38.6	2	5	292	0.00	29.551 
21:35	42.5	42.5	42.5	84	38.0	3	7	292	0.00	29.551 
21:40	41.5	38.2	41.5	84	37.0	5	7	270	0.00	29.551 
21:45	40.8	38.2	40.8	85	36.6	4	7	270	0.00	29.578 
21:50	40.3	37.7	40.3	86	36.5	4	6	270	0.00	29.578 
21:55	40.1	40.1	40.1	87	36.5	3	6	270	0.00	29.578 
22:00	40.1	40.1	40.1	88	36.8	2	4	270	0.00	29.593 
22:05	39.9	37.2	39.9	88	36.6	4	9	270	0.00	29.593 
22:10	39.8	39.8	39.8	88	36.5	3	5	292	0.00	29.593 
22:15	39.8	39.8	39.8	87	36.3	2	4	270	0.00	29.603 
22:20	39.6	39.6	39.6	87	36.1	3	5	270	0.00	29.603 
22:25	39.5	39.5	39.5	87	36.0	1	3	270	0.00	29.603 
22:30	39.5	39.5	39.5	87	36.0	2	5	270	0.00	29.603 
22:35	39.3	39.3	39.3	87	35.8	3	5	270	0.00	29.603 
22:40	39.3	39.3	39.3	91	36.9	3	7	270	0.00	29.603 
22:45	39.3	39.3	39.3	86	35.5	3	6	270	0.00	29.608 
22:50	39.2	39.2	39.2	86	35.4	3	6	270	0.00	29.608 
22:55	39.2	39.2	39.2	86	35.4	3	5	292	0.00	29.608 
23:00	39.2	39.2	39.2	86	35.4	3	7	270	0.00	29.616 
23:05	39.2	39.2	39.2	85	35.1	3	6	270	0.00	29.616 
23:10	39.1	39.1	39.1	84	34.7	3	6	270	0.00	29.616 
23:15	39.2	39.2	39.2	84	34.8	3	5	270	0.00	29.621 
23:20	39.2	39.2	39.2	84	34.8	2	6	292	0.00	29.621 
23:25	39.2	39.2	39.2	84	34.8	2	4	270	0.00	29.621 
23:30	39.2	39.2	39.2	84	34.8	1	4	270	0.00	29.634 
23:35	39.1	39.1	39.1	84	34.7	2	6	270	0.00	29.634 
23:40	38.9	38.9	38.9	84	34.5	3	6	292	0.00	29.634 
23:45	38.9	38.9	38.9	85	34.8	2	4	270	0.00	29.647 
23:50	38.8	38.8	38.8	85	34.7	3	7	270	0.00	29.647 
23:55	38.6	38.6	38.6	85	34.5	3	6	270	0.00	29.647 

CoCoRaHS
IN-AL-39
A2 Web Hosting
Creative Commons License
GoDaddy
search engine by freefind advanced

loaded 2018-11-17 19:30:22 • last modified 2010-11-18 10:43:29
Privacy PolicyDisclaimer
• wx.awcolley.com is powered by PmWiki v.2002016 •
• all content (unless otherwise noted) © 2018 A W Colley